sensor_id;sensor_type;location;lat;lon;timestamp;pressure;altitude;pressure_sealevel;temperature;humidity
63399;BME280;49533;-34.520;150.798;2023-11-19T00:01:01;100943.25;;;24.13;48.49
63399;BME280;49533;-34.520;150.798;2023-11-19T00:03:31;100954.00;;;24.21;49.15
63399;BME280;49533;-34.520;150.798;2023-11-19T00:06:00;100945.28;;;24.23;48.76
63399;BME280;49533;-34.520;150.798;2023-11-19T00:08:27;100950.44;;;24.28;49.13
63399;BME280;49533;-34.520;150.798;2023-11-19T00:10:54;100950.06;;;24.33;49.57
63399;BME280;49533;-34.520;150.798;2023-11-19T00:13:22;100866.19;;;23.84;49.88
63399;BME280;49533;-34.520;150.798;2023-11-19T00:15:50;100914.31;;;24.17;49.91
63399;BME280;49533;-34.520;150.798;2023-11-19T00:18:17;100945.34;;;24.37;49.97
63399;BME280;49533;-34.520;150.798;2023-11-19T00:20:46;100869.09;;;24.09;49.71
63399;BME280;49533;-34.520;150.798;2023-11-19T00:23:14;100944.19;;;24.49;49.87
63399;BME280;49533;-34.520;150.798;2023-11-19T00:25:41;100944.63;;;24.51;49.75
63399;BME280;49533;-34.520;150.798;2023-11-19T00:28:09;100842.84;;;23.93;49.67
63399;BME280;49533;-34.520;150.798;2023-11-19T00:30:36;100767.38;;;23.55;49.59
63399;BME280;49533;-34.520;150.798;2023-11-19T00:33:21;100921.66;;;24.65;49.65
63399;BME280;49533;-34.520;150.798;2023-11-19T00:36:08;100926.81;;;24.70;49.68
63399;BME280;49533;-34.520;150.798;2023-11-19T00:38:52;100926.03;;;24.73;49.39
63399;BME280;49533;-34.520;150.798;2023-11-19T00:41:26;100886.31;;;24.58;49.20
63399;BME280;49533;-34.520;150.798;2023-11-19T00:44:15;100899.03;;;24.70;49.44
63399;BME280;49533;-34.520;150.798;2023-11-19T00:47:04;100800.09;;;24.12;49.47
63399;BME280;49533;-34.520;150.798;2023-11-19T00:53:00;100906.19;;;24.89;49.26
63399;BME280;49533;-34.520;150.798;2023-11-19T00:55:41;100863.69;;;24.63;49.18
63399;BME280;49533;-34.520;150.798;2023-11-19T00:58:23;100864.09;;;24.69;49.21
63399;BME280;49533;-34.520;150.798;2023-11-19T01:01:10;100857.34;;;24.73;48.98
63399;BME280;49533;-34.520;150.798;2023-11-19T01:03:52;100898.63;;;24.89;48.76
63399;BME280;49533;-34.520;150.798;2023-11-19T01:06:34;100880.38;;;24.88;48.69
63399;BME280;49533;-34.520;150.798;2023-11-19T01:09:25;100802.13;;;24.40;48.63
63399;BME280;49533;-34.520;150.798;2023-11-19T01:12:02;100837.47;;;24.64;48.73
63399;BME280;49533;-34.520;150.798;2023-11-19T01:15:07;100803.34;;;24.53;48.94
63399;BME280;49533;-34.520;150.798;2023-11-19T01:17:45;100833.94;;;24.78;49.01
63399;BME280;49533;-34.520;150.798;2023-11-19T01:20:15;100814.88;;;24.69;49.48
63399;BME280;49533;-34.520;150.798;2023-11-19T01:22:49;100800.59;;;24.71;48.45
63399;BME280;49533;-34.520;150.798;2023-11-19T01:25:37;100870.84;;;25.14;49.08
63399;BME280;49533;-34.520;150.798;2023-11-19T01:28:11;100831.16;;;25.03;48.63
63399;BME280;49533;-34.520;150.798;2023-11-19T01:31:01;100817.66;;;24.84;48.66
63399;BME280;49533;-34.520;150.798;2023-11-19T01:33:36;100841.47;;;25.13;49.03
63399;BME280;49533;-34.520;150.798;2023-11-19T01:39:20;100860.50;;;25.40;48.17
63399;BME280;49533;-34.520;150.798;2023-11-19T01:41:55;100867.66;;;25.41;48.67
63399;BME280;49533;-34.520;150.798;2023-11-19T01:44:36;100846.59;;;25.33;48.13
63399;BME280;49533;-34.520;150.798;2023-11-19T01:47:25;100841.41;;;25.46;48.51
63399;BME280;49533;-34.520;150.798;2023-11-19T01:49:58;100835.09;;;25.31;48.31
63399;BME280;49533;-34.520;150.798;2023-11-19T01:52:49;100834.69;;;25.36;48.03
63399;BME280;49533;-34.520;150.798;2023-11-19T01:55:32;100785.88;;;25.06;47.91
63399;BME280;49533;-34.520;150.798;2023-11-19T01:58:22;100736.69;;;24.67;47.90
63399;BME280;49533;-34.520;150.798;2023-11-19T02:00:54;100753.31;;;24.92;48.25
63399;BME280;49533;-34.520;150.798;2023-11-19T02:03:32;100789.06;;;25.19;48.38
63399;BME280;49533;-34.520;150.798;2023-11-19T02:06:12;100752.53;;;24.95;48.26
63399;BME280;49533;-34.520;150.798;2023-11-19T02:12:03;100833.44;;;25.58;48.30
63399;BME280;49533;-34.520;150.798;2023-11-19T02:14:33;100794.59;;;25.12;48.16
63399;BME280;49533;-34.520;150.798;2023-11-19T02:17:01;100848.53;;;25.61;48.13
63399;BME280;49533;-34.520;150.798;2023-11-19T02:19:56;100844.16;;;25.64;47.92
63399;BME280;49533;-34.520;150.798;2023-11-19T02:22:26;100837.78;;;25.67;48.15
63399;BME280;49533;-34.520;150.798;2023-11-19T02:25:02;100805.63;;;25.51;48.21
63399;BME280;49533;-34.520;150.798;2023-11-19T02:28:06;100804.81;;;25.58;47.42
63399;BME280;49533;-34.520;150.798;2023-11-19T02:30:34;100806.41;;;25.59;47.49
63399;BME280;49533;-34.520;150.798;2023-11-19T02:33:01;100788.16;;;25.54;47.74
63399;BME280;49533;-34.520;150.798;2023-11-19T02:35:32;100812.31;;;25.72;47.34
63399;BME280;49533;-34.520;150.798;2023-11-19T02:38:00;100833.38;;;25.80;47.27
63399;BME280;49533;-34.520;150.798;2023-11-19T02:40:27;100824.22;;;25.83;47.55
63399;BME280;49533;-34.520;150.798;2023-11-19T02:42:54;100794.09;;;25.60;47.41
63399;BME280;49533;-34.520;150.798;2023-11-19T02:45:25;100815.88;;;25.76;46.81
63399;BME280;49533;-34.520;150.798;2023-11-19T02:47:53;100774.25;;;25.54;46.73
63399;BME280;49533;-34.520;150.798;2023-11-19T02:50:21;100817.44;;;25.84;47.15
63399;BME280;49533;-34.520;150.798;2023-11-19T02:52:56;100773.06;;;25.48;47.14
63399;BME280;49533;-34.520;150.798;2023-11-19T02:55:23;100825.81;;;25.77;46.99
63399;BME280;49533;-34.520;150.798;2023-11-19T02:57:54;100806.72;;;25.79;46.92
63399;BME280;49533;-34.520;150.798;2023-11-19T03:00:23;100719.94;;;25.17;47.11
63399;BME280;49533;-34.520;150.798;2023-11-19T03:02:51;100812.69;;;25.81;47.48
63399;BME280;49533;-34.520;150.798;2023-11-19T03:05:36;100812.69;;;25.85;46.61
63399;BME280;49533;-34.520;150.798;2023-11-19T03:08:04;100801.16;;;25.86;46.77
63399;BME280;49533;-34.520;150.798;2023-11-19T03:10:31;100798.75;;;25.85;46.62
63399;BME280;49533;-34.520;150.798;2023-11-19T03:13:04;100790.03;;;25.83;47.40
63399;BME280;49533;-34.520;150.798;2023-11-19T03:15:32;100744.81;;;25.53;46.84
63399;BME280;49533;-34.520;150.798;2023-11-19T03:17:59;100740.88;;;25.54;47.01
63399;BME280;49533;-34.520;150.798;2023-11-19T03:20:27;100779.28;;;25.88;46.65
63399;BME280;49533;-34.520;150.798;2023-11-19T03:22:57;100762.19;;;25.79;47.35
63399;BME280;49533;-34.520;150.798;2023-11-19T03:25:27;100775.28;;;25.89;46.86
63399;BME280;49533;-34.520;150.798;2023-11-19T03:28:02;100698.38;;;25.47;46.99
63399;BME280;49533;-34.520;150.798;2023-11-19T03:30:30;100728.13;;;25.57;47.49
63399;BME280;49533;-34.520;150.798;2023-11-19T03:32:58;100770.50;;;25.93;47.56
63399;BME280;49533;-34.520;150.798;2023-11-19T03:35:28;100764.13;;;25.96;47.16
63399;BME280;49533;-34.520;150.798;2023-11-19T03:37:56;100760.56;;;25.92;47.30
63399;BME280;49533;-34.520;150.798;2023-11-19T03:40:23;100739.88;;;25.90;47.65
63399;BME280;49533;-34.520;150.798;2023-11-19T03:42:51;100754.94;;;25.99;47.70
63399;BME280;49533;-34.520;150.798;2023-11-19T03:45:18;100640.84;;;25.26;47.78
63399;BME280;49533;-34.520;150.798;2023-11-19T03:47:45;100707.78;;;25.71;47.60
63399;BME280;49533;-34.520;150.798;2023-11-19T03:50:13;100739.06;;;25.96;47.50
63399;BME280;49533;-34.520;150.798;2023-11-19T03:52:42;100581.44;;;24.84;47.73
63399;BME280;49533;-34.520;150.798;2023-11-19T03:55:12;100706.63;;;25.65;47.64
63399;BME280;49533;-34.520;150.798;2023-11-19T03:57:39;100699.44;;;25.71;47.98
63399;BME280;49533;-34.520;150.798;2023-11-19T04:00:07;100727.94;;;25.96;48.03
63399;BME280;49533;-34.520;150.798;2023-11-19T04:02:40;100727.88;;;26.03;47.85
63399;BME280;49533;-34.520;150.798;2023-11-19T04:05:08;100735.06;;;26.01;47.94
63399;BME280;49533;-34.520;150.798;2023-11-19T04:07:36;100655.41;;;25.51;48.38
63399;BME280;49533;-34.520;150.798;2023-11-19T04:10:04;100660.16;;;25.58;48.37
63399;BME280;49533;-34.520;150.798;2023-11-19T04:12:31;100711.63;;;25.98;48.09
63399;BME280;49533;-34.520;150.798;2023-11-19T04:14:58;100715.97;;;26.03;48.53
63399;BME280;49533;-34.520;150.798;2023-11-19T04:17:25;100715.97;;;26.03;48.34
63399;BME280;49533;-34.520;150.798;2023-11-19T04:19:52;100691.78;;;25.89;48.13
63399;BME280;49533;-34.520;150.798;2023-11-19T04:22:19;100705.19;;;26.05;48.27
63399;BME280;49533;-34.520;150.798;2023-11-19T04:24:47;100704.00;;;26.02;48.41
63399;BME280;49533;-34.520;150.798;2023-11-19T04:27:14;100650.56;;;25.66;48.61
63399;BME280;49533;-34.520;150.798;2023-11-19T04:29:41;100711.56;;;26.02;48.28
63399;BME280;49533;-34.520;150.798;2023-11-19T04:32:11;100701.22;;;26.02;48.68
63399;BME280;49533;-34.520;150.798;2023-11-19T04:34:47;100669.13;;;25.84;48.57
63399;BME280;49533;-34.520;150.798;2023-11-19T04:37:14;100663.22;;;25.78;48.77
63399;BME280;49533;-34.520;150.798;2023-11-19T04:39:43;100664.00;;;25.78;48.89
63399;BME280;49533;-34.520;150.798;2023-11-19T04:42:10;100674.34;;;25.85;48.98
63399;BME280;49533;-34.520;150.798;2023-11-19T04:44:38;100643.03;;;25.63;49.02
63399;BME280;49533;-34.520;150.798;2023-11-19T04:47:05;100670.34;;;25.86;49.14
63399;BME280;49533;-34.520;150.798;2023-11-19T04:49:32;100628.38;;;25.55;49.49
63399;BME280;49533;-34.520;150.798;2023-11-19T04:51:59;100655.22;;;25.84;49.12
63399;BME280;49533;-34.520;150.798;2023-11-19T04:54:26;100586.28;;;25.46;49.33
63399;BME280;49533;-34.520;150.798;2023-11-19T04:56:53;100673.91;;;25.90;49.69
63399;BME280;49533;-34.520;150.798;2023-11-19T04:59:21;100650.47;;;25.77;49.58
63399;BME280;49533;-34.520;150.798;2023-11-19T05:01:48;100662.00;;;25.86;49.36
63399;BME280;49533;-34.520;150.798;2023-11-19T05:04:15;100650.81;;;25.93;48.91
63399;BME280;49533;-34.520;150.798;2023-11-19T05:06:42;100665.81;;;26.07;49.29
63399;BME280;49533;-34.520;150.798;2023-11-19T05:09:09;100592.13;;;25.66;49.05
63399;BME280;49533;-34.520;150.798;2023-11-19T05:11:39;100672.16;;;26.11;48.70
63399;BME280;49533;-34.520;150.798;2023-11-19T05:14:06;100660.94;;;26.18;48.62
63399;BME280;49533;-34.520;150.798;2023-11-19T05:16:35;100621.00;;;25.90;48.39
63399;BME280;49533;-34.520;150.798;2023-11-19T05:19:03;100657.38;;;26.17;48.57
63399;BME280;49533;-34.520;150.798;2023-11-19T05:21:31;100605.06;;;25.94;48.30
63399;BME280;49533;-34.520;150.798;2023-11-19T05:23:58;100612.22;;;25.95;48.17
63399;BME280;49533;-34.520;150.798;2023-11-19T05:26:28;100631.19;;;26.11;48.40
63399;BME280;49533;-34.520;150.798;2023-11-19T05:28:55;100654.59;;;26.17;48.20
63399;BME280;49533;-34.520;150.798;2023-11-19T05:31:22;100608.28;;;25.89;48.60
63399;BME280;49533;-34.520;150.798;2023-11-19T05:33:49;100618.47;;;26.07;48.70
63399;BME280;49533;-34.520;150.798;2023-11-19T05:36:17;100650.19;;;26.20;48.39
63399;BME280;49533;-34.520;150.798;2023-11-19T05:38:44;100645.78;;;26.22;48.51
63399;BME280;49533;-34.520;150.798;2023-11-19T05:41:11;100630.75;;;26.13;48.66
63399;BME280;49533;-34.520;150.798;2023-11-19T05:43:38;100575.94;;;25.50;48.21
63399;BME280;49533;-34.520;150.798;2023-11-19T05:46:07;100588.06;;;25.85;48.65
63399;BME280;49533;-34.520;150.798;2023-11-19T05:48:35;100612.53;;;26.05;49.05
63399;BME280;49533;-34.520;150.798;2023-11-19T05:51:02;100618.81;;;26.12;49.20
63399;BME280;49533;-34.520;150.798;2023-11-19T05:53:29;100620.44;;;26.10;49.29
63399;BME280;49533;-34.520;150.798;2023-11-19T05:55:57;100614.13;;;26.06;49.40
63399;BME280;49533;-34.520;150.798;2023-11-19T05:58:25;100613.75;;;26.03;49.38
63399;BME280;49533;-34.520;150.798;2023-11-19T06:00:58;100603.47;;;25.93;49.07
63399;BME280;49533;-34.520;150.798;2023-11-19T06:03:27;100564.66;;;25.72;48.93
63399;BME280;49533;-34.520;150.798;2023-11-19T06:06:08;100611.41;;;25.95;48.79
63399;BME280;49533;-34.520;150.798;2023-11-19T06:08:37;100624.06;;;26.07;49.05
63399;BME280;49533;-34.520;150.798;2023-11-19T06:11:04;100552.38;;;25.66;49.05
63399;BME280;49533;-34.520;150.798;2023-11-19T06:13:32;100611.34;;;26.06;49.13
63399;BME280;49533;-34.520;150.798;2023-11-19T06:15:59;100541.75;;;25.53;49.28
63399;BME280;49533;-34.520;150.798;2023-11-19T06:18:26;100613.34;;;26.01;49.01
63399;BME280;49533;-34.520;150.798;2023-11-19T06:20:53;100489.16;;;25.17;49.10
63399;BME280;49533;-34.520;150.798;2023-11-19T06:23:20;100613.34;;;26.01;49.29
63399;BME280;49533;-34.520;150.798;2023-11-19T06:25:48;100610.63;;;25.98;49.43
63399;BME280;49533;-34.520;150.798;2023-11-19T06:28:16;100613.34;;;26.01;48.94
63399;BME280;49533;-34.520;150.798;2023-11-19T06:30:43;100598.66;;;25.97;49.17
63399;BME280;49533;-34.520;150.798;2023-11-19T06:33:13;100584.44;;;25.88;49.10
63399;BME280;49533;-34.520;150.798;2023-11-19T06:35:40;100595.47;;;25.99;48.96
63399;BME280;49533;-34.520;150.798;2023-11-19T06:38:07;100615.63;;;26.14;49.17
63399;BME280;49533;-34.520;150.798;2023-11-19T06:40:35;100591.13;;;25.98;48.59
63399;BME280;49533;-34.520;150.798;2023-11-19T06:43:02;100602.16;;;26.09;49.18
63399;BME280;49533;-34.520;150.798;2023-11-19T06:45:30;100610.03;;;26.17;48.93
63399;BME280;49533;-34.520;150.798;2023-11-19T06:47:57;100608.78;;;26.22;48.51
63399;BME280;49533;-34.520;150.798;2023-11-19T06:50:28;100610.41;;;26.23;49.00
63399;BME280;49533;-34.520;150.798;2023-11-19T06:52:55;100575.59;;;26.00;49.06
63399;BME280;49533;-34.520;150.798;2023-11-19T06:55:22;100596.97;;;26.11;48.80
63399;BME280;49533;-34.520;150.798;2023-11-19T06:57:49;100609.19;;;26.24;48.85
63399;BME280;49533;-34.520;150.798;2023-11-19T07:00:16;100595.38;;;26.10;48.83
63399;BME280;49533;-34.520;150.798;2023-11-19T07:02:44;100611.91;;;26.28;48.56
63399;BME280;49533;-34.520;150.798;2023-11-19T07:05:11;100636.19;;;26.27;48.71
63399;BME280;49533;-34.520;150.798;2023-11-19T07:07:39;100587.47;;;26.05;49.23
63399;BME280;49533;-34.520;150.798;2023-11-19T07:10:07;100615.19;;;26.19;48.87
63399;BME280;49533;-34.520;150.798;2023-11-19T07:12:35;100608.84;;;26.18;48.83
63399;BME280;49533;-34.520;150.798;2023-11-19T07:15:03;100544.00;;;25.73;48.97
63399;BME280;49533;-34.520;150.798;2023-11-19T07:17:31;100626.28;;;26.22;49.30
63399;BME280;49533;-34.520;150.798;2023-11-19T07:19:58;100601.78;;;26.07;49.43
63399;BME280;49533;-34.520;150.798;2023-11-19T07:22:26;100598.59;;;26.05;49.42
63399;BME280;49533;-34.520;150.798;2023-11-19T07:24:55;100622.31;;;26.23;49.49
63399;BME280;49533;-34.520;150.798;2023-11-19T07:27:22;100612.13;;;26.06;49.43
63399;BME280;49533;-34.520;150.798;2023-11-19T07:29:50;100596.22;;;26.07;49.13
63399;BME280;49533;-34.520;150.798;2023-11-19T07:32:17;100619.16;;;26.21;49.69
63399;BME280;49533;-34.520;150.798;2023-11-19T07:34:44;100613.97;;;26.20;49.42
63399;BME280;49533;-34.520;150.798;2023-11-19T07:37:11;100622.78;;;26.15;49.31
63399;BME280;49533;-34.520;150.798;2023-11-19T07:39:38;100621.59;;;26.12;49.80
63399;BME280;49533;-34.520;150.798;2023-11-19T07:42:11;100618.47;;;26.07;49.96
63399;BME280;49533;-34.520;150.798;2023-11-19T07:44:38;100630.84;;;26.06;49.53
63399;BME280;49533;-34.520;150.798;2023-11-19T07:47:05;100647.88;;;26.11;50.13
63399;BME280;49533;-34.520;150.798;2023-11-19T07:49:32;100647.09;;;26.11;49.82
63399;BME280;49533;-34.520;150.798;2023-11-19T07:51:59;100663.47;;;26.01;50.20
63399;BME280;49533;-34.520;150.798;2023-11-19T07:54:27;100659.09;;;26.00;49.91
63399;BME280;49533;-34.520;150.798;2023-11-19T07:56:55;100680.53;;;26.07;50.05
63399;BME280;49533;-34.520;150.798;2023-11-19T07:59:22;100655.97;;;25.91;49.81
63399;BME280;49533;-34.520;150.798;2023-11-19T08:01:49;100677.34;;;26.05;50.30
63399;BME280;49533;-34.520;150.798;2023-11-19T08:04:16;100680.97;;;26.02;50.45
63399;BME280;49533;-34.520;150.798;2023-11-19T08:06:43;100673.47;;;25.95;50.39
63399;BME280;49533;-34.520;150.798;2023-11-19T08:09:11;100652.81;;;25.82;50.47
63399;BME280;49533;-34.520;150.798;2023-11-19T08:11:41;100683.00;;;25.98;50.11
63399;BME280;49533;-34.520;150.798;2023-11-19T08:14:08;100693.31;;;25.97;50.38
63399;BME280;49533;-34.520;150.798;2023-11-19T08:16:35;100696.53;;;25.96;50.56
63399;BME280;49533;-34.520;150.798;2023-11-19T08:19:04;100690.56;;;25.94;50.70
63399;BME280;49533;-34.520;150.798;2023-11-19T08:21:31;100698.94;;;25.90;50.32
63399;BME280;49533;-34.520;150.798;2023-11-19T08:23:58;100714.06;;;25.89;50.79
63399;BME280;49533;-34.520;150.798;2023-11-19T08:26:25;100679.59;;;25.62;50.38
63399;BME280;49533;-34.520;150.798;2023-11-19T08:28:52;100686.34;;;25.64;50.35
63399;BME280;49533;-34.520;150.798;2023-11-19T08:31:19;100716.09;;;25.85;50.77
63399;BME280;49533;-34.520;150.798;2023-11-19T08:33:46;100699.47;;;25.67;50.56
63399;BME280;49533;-34.520;150.798;2023-11-19T08:36:17;100730.75;;;25.82;50.98
63399;BME280;49533;-34.520;150.798;2023-11-19T08:38:44;100703.06;;;25.60;50.43
63399;BME280;49533;-34.520;150.798;2023-11-19T08:41:11;100698.75;;;25.52;50.83
63399;BME280;49533;-34.520;150.798;2023-11-19T08:43:38;100738.00;;;25.72;50.79
63399;BME280;49533;-34.520;150.798;2023-11-19T08:46:12;100759.84;;;25.77;50.35
63399;BME280;49533;-34.520;150.798;2023-11-19T08:48:39;100739.19;;;25.68;50.60
63399;BME280;49533;-34.520;150.798;2023-11-19T08:51:07;100705.53;;;25.44;50.83
63399;BME280;49533;-34.520;150.798;2023-11-19T08:53:34;100749.91;;;25.69;50.46
63399;BME280;49533;-34.520;150.798;2023-11-19T08:56:01;100743.59;;;25.65;50.31
63399;BME280;49533;-34.520;150.798;2023-11-19T08:58:29;100763.44;;;25.71;50.83
63399;BME280;49533;-34.520;150.798;2023-11-19T09:00:57;100740.84;;;25.51;50.57
63399;BME280;49533;-34.520;150.798;2023-11-19T09:03:24;100756.34;;;25.55;50.58
63399;BME280;49533;-34.520;150.798;2023-11-19T09:05:56;100772.59;;;25.64;50.49
63399;BME280;49533;-34.520;150.798;2023-11-19T09:08:23;100776.19;;;25.65;51.01
63399;BME280;49533;-34.520;150.798;2023-11-19T09:10:50;100792.06;;;25.64;50.97
63399;BME280;49533;-34.520;150.798;2023-11-19T09:13:18;100795.28;;;25.63;50.63
63399;BME280;49533;-34.520;150.798;2023-11-19T09:15:45;100789.31;;;25.60;51.03
63399;BME280;49533;-34.520;150.798;2023-11-19T09:18:12;100786.53;;;25.60;50.58
63399;BME280;49533;-34.520;150.798;2023-11-19T09:20:39;100788.91;;;25.58;50.60
63399;BME280;49533;-34.520;150.798;2023-11-19T09:23:06;100769.09;;;25.46;50.66
63399;BME280;49533;-34.520;150.798;2023-11-19T09:25:35;100783.78;;;25.50;50.65
63399;BME280;49533;-34.520;150.798;2023-11-19T09:28:02;100801.25;;;25.54;50.69
63399;BME280;49533;-34.520;150.798;2023-11-19T09:30:29;100797.69;;;25.53;50.84
63399;BME280;49533;-34.520;150.798;2023-11-19T09:32:56;100797.69;;;25.53;51.16
63399;BME280;49533;-34.520;150.798;2023-11-19T09:35:24;100800.06;;;25.51;50.98
63399;BME280;49533;-34.520;150.798;2023-11-19T09:37:51;100777.47;;;25.35;51.02
63399;BME280;49533;-34.520;150.798;2023-11-19T09:40:18;100754.09;;;25.18;51.18
63399;BME280;49533;-34.520;150.798;2023-11-19T09:42:49;100781.06;;;25.39;51.31
63399;BME280;49533;-34.520;150.798;2023-11-19T09:45:21;100783.44;;;25.37;50.86
63399;BME280;49533;-34.520;150.798;2023-11-19T09:47:53;100794.94;;;25.43;51.25
63399;BME280;49533;-34.520;150.798;2023-11-19T09:50:23;100800.50;;;25.43;51.39
63399;BME280;49533;-34.520;150.798;2023-11-19T09:52:54;100805.28;;;25.42;51.04
63399;BME280;49533;-34.520;150.798;2023-11-19T09:55:21;100807.28;;;25.42;50.99
63399;BME280;49533;-34.520;150.798;2023-11-19T09:57:48;100809.66;;;25.40;51.40
63399;BME280;49533;-34.520;150.798;2023-11-19T10:00:19;100775.53;;;25.14;51.08
63399;BME280;49533;-34.520;150.798;2023-11-19T10:02:49;100817.19;;;25.35;50.99
63399;BME280;49533;-34.520;150.798;2023-11-19T10:05:16;100771.56;;;25.04;51.40
63399;BME280;49533;-34.520;150.798;2023-11-19T10:07:44;100802.53;;;25.21;51.39
63399;BME280;49533;-34.520;150.798;2023-11-19T10:10:12;100806.91;;;25.14;51.40
63399;BME280;49533;-34.520;150.798;2023-11-19T10:12:52;100826.38;;;25.29;51.39
63399;BME280;49533;-34.520;150.798;2023-11-19T10:15:23;100821.59;;;25.22;51.04
63399;BME280;49533;-34.520;150.798;2023-11-19T10:17:56;100833.53;;;25.23;51.37
63399;BME280;49533;-34.520;150.798;2023-11-19T10:20:23;100847.03;;;25.28;51.42
63399;BME280;49533;-34.520;150.798;2023-11-19T10:22:54;100806.91;;;25.07;51.42
63399;BME280;49533;-34.520;150.798;2023-11-19T10:25:28;100787.06;;;24.94;51.20
63399;BME280;49533;-34.520;150.798;2023-11-19T10:27:57;100793.00;;;25.00;50.95
63399;BME280;49533;-34.520;150.798;2023-11-19T10:30:28;100824.78;;;25.21;51.00
63399;BME280;49533;-34.520;150.798;2023-11-19T10:33:08;100816.84;;;25.19;51.46
63399;BME280;49533;-34.520;150.798;2023-11-19T10:38:19;100772.00;;;24.85;51.29
63399;BME280;49533;-34.520;150.798;2023-11-19T10:40:50;100811.66;;;25.10;51.49
63399;BME280;49533;-34.520;150.798;2023-11-19T10:43:19;100808.91;;;25.03;51.41
63399;BME280;49533;-34.520;150.798;2023-11-19T10:45:47;100807.31;;;24.99;51.14
63399;BME280;49533;-34.520;150.798;2023-11-19T10:48:15;100770.00;;;24.74;51.34
63399;BME280;49533;-34.520;150.798;2023-11-19T10:50:43;100795.03;;;24.89;51.24
63399;BME280;49533;-34.520;150.798;2023-11-19T10:53:12;100831.13;;;25.10;51.52
63399;BME280;49533;-34.520;150.798;2023-11-19T10:55:47;100785.91;;;24.78;51.48
63399;BME280;49533;-34.520;150.798;2023-11-19T10:58:16;100825.97;;;24.94;51.47
63399;BME280;49533;-34.520;150.798;2023-11-19T11:00:51;100834.72;;;25.07;51.61
63399;BME280;49533;-34.520;150.798;2023-11-19T11:03:21;100834.31;;;25.05;51.32
63399;BME280;49533;-34.520;150.798;2023-11-19T11:05:50;100835.91;;;25.03;51.58
63399;BME280;49533;-34.520;150.798;2023-11-19T11:08:18;100837.88;;;25.02;51.45
63399;BME280;49533;-34.520;150.798;2023-11-19T11:10:54;100831.94;;;25.00;51.43
63399;BME280;49533;-34.520;150.798;2023-11-19T11:13:23;100820.03;;;24.78;51.33
63399;BME280;49533;-34.520;150.798;2023-11-19T11:15:51;100810.53;;;24.83;51.24
63399;BME280;49533;-34.520;150.798;2023-11-19T11:18:20;100825.59;;;24.96;51.67
63399;BME280;49533;-34.520;150.798;2023-11-19T11:20:48;100752.53;;;24.38;50.98
63399;BME280;49533;-34.520;150.798;2023-11-19T11:32:21;100822.00;;;24.67;51.31
63399;BME280;49533;-34.520;150.798;2023-11-19T11:35:26;100819.25;;;24.70;51.73
63399;BME280;49533;-34.520;150.798;2023-11-19T11:38:07;100829.19;;;24.75;51.92
63399;BME280;49533;-34.520;150.798;2023-11-19T11:40:35;100818.03;;;24.64;51.60
63399;BME280;49533;-34.520;150.798;2023-11-19T11:43:03;100814.47;;;24.60;51.24
63399;BME280;49533;-34.520;150.798;2023-11-19T11:45:39;100800.56;;;24.46;51.80
63399;BME280;49533;-34.520;150.798;2023-11-19T11:50:53;100806.88;;;24.43;51.90
63399;BME280;49533;-34.520;150.798;2023-11-19T11:53:22;100852.59;;;24.70;51.89
63399;BME280;49533;-34.520;150.798;2023-11-19T11:58:22;100822.81;;;24.53;51.62
63399;BME280;49533;-34.520;150.798;2023-11-19T12:00:52;100837.88;;;24.59;51.50
63399;BME280;49533;-34.520;150.798;2023-11-19T12:03:23;100836.31;;;24.58;51.90
63399;BME280;49533;-34.520;150.798;2023-11-19T12:05:50;100833.94;;;24.60;51.49
63399;BME280;49533;-34.520;150.798;2023-11-19T12:08:26;100852.19;;;24.65;51.85
63399;BME280;49533;-34.520;150.798;2023-11-19T12:10:54;100813.66;;;24.45;51.32
63399;BME280;49533;-34.520;150.798;2023-11-19T12:13:29;100822.41;;;24.47;51.72
63399;BME280;49533;-34.520;150.798;2023-11-19T12:16:10;100798.53;;;24.28;51.40
63399;BME280;49533;-34.520;150.798;2023-11-19T12:18:39;100806.88;;;24.36;51.62
63399;BME280;49533;-34.520;150.798;2023-11-19T12:21:07;100822.34;;;24.44;51.59
63399;BME280;49533;-34.520;150.798;2023-11-19T12:23:44;100839.88;;;24.55;51.54
63399;BME280;49533;-34.520;150.798;2023-11-19T12:26:35;100834.31;;;24.55;51.49
63399;BME280;49533;-34.520;150.798;2023-11-19T12:29:02;100832.72;;;24.54;51.84
63399;BME280;49533;-34.520;150.798;2023-11-19T12:31:33;100831.94;;;24.54;51.57
63399;BME280;49533;-34.520;150.798;2023-11-19T12:34:05;100805.28;;;24.31;51.41
63399;BME280;49533;-34.520;150.798;2023-11-19T12:36:33;100815.22;;;24.39;51.44
63399;BME280;49533;-34.520;150.798;2023-11-19T12:39:01;100830.72;;;24.51;51.51
63399;BME280;49533;-34.520;150.798;2023-11-19T12:41:28;100814.84;;;24.44;51.47
63399;BME280;49533;-34.520;150.798;2023-11-19T12:44:09;100775.91;;;24.12;51.55
63399;BME280;49533;-34.520;150.798;2023-11-19T12:46:37;100823.19;;;24.48;51.57
63399;BME280;49533;-34.520;150.798;2023-11-19T12:49:05;100831.53;;;24.48;51.51
63399;BME280;49533;-34.520;150.798;2023-11-19T12:51:39;100742.53;;;23.87;51.65
63399;BME280;49533;-34.520;150.798;2023-11-19T12:54:06;100793.78;;;24.22;51.30
63399;BME280;49533;-34.520;150.798;2023-11-19T12:56:33;100823.16;;;24.44;51.54
63399;BME280;49533;-34.520;150.798;2023-11-19T12:59:11;100821.56;;;24.43;51.83
63399;BME280;49533;-34.520;150.798;2023-11-19T13:01:39;100812.44;;;24.43;51.56
63399;BME280;49533;-34.520;150.798;2023-11-19T13:04:18;100800.94;;;24.41;51.65